Time;durP1;ratioP1;P1;durP2;ratioP2;P2;SDS_P1;SDS_P2;PMS_P1;PMS_P2;Temp;Humidity;BMP_temperature;BMP_pressure;BME280_temperature;BME280_humidity;BME280_pressure;Samples;Min_cycle;Max_cycle;Signal;HPM_P1;HPM_P2
2021/03/01 00:01:00;;;;;;;20.13;8.00;;;4.60;99.90;;;;;;5004174;28;20437;-74
2021/03/01 00:03:26;;;;;;;13.67;7.30;;;4.60;99.90;;;;;;5003626;28;20199;-74
2021/03/01 00:05:52;;;;;;;19.70;7.97;;;4.60;99.90;;;;;;5002608;28;20208;-74
2021/03/01 00:08:17;;;;;;;16.57;7.47;;;4.60;99.90;;;;;;5001094;28;20179;-74
2021/03/01 00:10:43;;;;;;;17.27;8.40;;;4.60;99.90;;;;;;5002731;28;20244;-74
2021/03/01 00:13:09;;;;;;;20.90;7.40;;;4.60;99.90;;;;;;5003329;28;20182;-75
2021/03/01 00:15:34;;;;;;;18.30;8.20;;;4.70;99.90;;;;;;5005903;28;20190;-75
2021/03/01 00:18:00;;;;;;;20.27;7.70;;;4.70;99.90;;;;;;5004739;28;20187;-75
2021/03/01 00:20:26;;;;;;;20.13;8.40;;;4.70;99.90;;;;;;5002210;28;20191;-75
2021/03/01 00:22:51;;;;;;;20.40;8.97;;;4.70;99.90;;;;;;5002372;28;20203;-74
2021/03/01 00:25:17;;;;;;;16.33;7.30;;;4.70;99.90;;;;;;5001883;28;20633;-74
2021/03/01 00:27:42;;;;;;;17.57;8.00;;;4.70;99.90;;;;;;5004351;28;20180;-74
2021/03/01 00:30:10;;;;;;;15.23;8.30;;;4.70;99.90;;;;;;5006055;28;20174;-74
2021/03/01 00:32:36;;;;;;;17.57;8.17;;;4.70;99.90;;;;;;5005051;28;20190;-74
2021/03/01 00:35:07;;;;;;;19.50;8.30;;;4.70;99.90;;;;;;5012750;28;20437;-74
2021/03/01 00:37:33;;;;;;;20.57;7.63;;;4.60;99.90;;;;;;5005972;28;20465;-74
2021/03/01 00:39:58;;;;;;;22.93;10.13;;;4.60;99.90;;;;;;5007104;28;20469;-74
2021/03/01 00:42:24;;;;;;;20.00;9.20;;;4.60;99.90;;;;;;5005558;28;20202;-74
2021/03/01 00:44:50;;;;;;;18.50;9.70;;;4.70;99.90;;;;;;5005108;28;20179;-74
2021/03/01 00:47:16;;;;;;;23.40;10.30;;;4.70;99.90;;;;;;5005817;28;20631;-74
2021/03/01 00:49:41;;;;;;;23.37;8.70;;;4.70;99.90;;;;;;5005363;28;20171;-74
2021/03/01 00:52:07;;;;;;;25.83;8.73;;;4.70;99.90;;;;;;5006464;28;20186;-74
2021/03/01 00:54:33;;;;;;;19.50;8.93;;;4.60;99.90;;;;;;5007729;28;20193;-74
2021/03/01 00:56:58;;;;;;;15.87;8.47;;;4.70;99.90;;;;;;5009048;28;20186;-74
2021/03/01 00:59:26;;;;;;;23.87;9.53;;;4.70;99.90;;;;;;5006328;28;20240;-74
2021/03/01 01:01:52;;;;;;;16.40;7.80;;;4.60;99.90;;;;;;5006736;28;20195;-74
2021/03/01 01:04:18;;;;;;;16.13;8.73;;;4.60;99.90;;;;;;5005342;28;20564;-74
2021/03/01 01:06:43;;;;;;;17.87;8.50;;;4.60;99.90;;;;;;5005020;28;20186;-74
2021/03/01 01:09:09;;;;;;;22.77;9.20;;;4.60;99.90;;;;;;5005424;28;20236;-74
2021/03/01 01:11:34;;;;;;;19.57;8.77;;;4.60;99.90;;;;;;5006346;28;20248;-74
2021/03/01 01:14:00;;;;;;;21.20;9.13;;;4.60;99.90;;;;;;5005787;28;20191;-74
2021/03/01 01:16:26;;;;;;;18.20;9.40;;;4.60;99.90;;;;;;5008557;28;20519;-74
2021/03/01 01:18:51;;;;;;;21.20;9.50;;;4.60;99.90;;;;;;5004676;28;20537;-74
2021/03/01 01:21:17;;;;;;;22.00;9.50;;;4.70;99.90;;;;;;5005946;28;20205;-75
2021/03/01 01:23:42;;;;;;;22.47;9.13;;;4.70;99.90;;;;;;5006189;28;20170;-74
2021/03/01 01:26:08;;;;;;;23.00;8.90;;;4.70;99.90;;;;;;5004401;28;20638;-74
2021/03/01 01:28:34;;;;;;;24.77;9.90;;;4.70;99.90;;;;;;5005764;28;20182;-75
2021/03/01 01:30:59;;;;;;;25.40;9.00;;;4.70;99.90;;;;;;5005371;28;20195;-74
2021/03/01 01:33:25;;;;;;;24.97;8.67;;;4.70;99.90;;;;;;5004973;28;20178;-75
2021/03/01 01:35:51;;;;;;;16.50;7.67;;;4.70;99.90;;;;;;5007695;28;20991;-74
2021/03/01 01:38:16;;;;;;;18.23;8.80;;;4.70;99.90;;;;;;5004424;28;20225;-74
2021/03/01 01:40:42;;;;;;;22.47;8.80;;;4.70;99.90;;;;;;5003338;28;20251;-74
2021/03/01 01:43:07;;;;;;;20.70;9.80;;;4.70;99.90;;;;;;5006324;28;20210;-74
2021/03/01 01:45:33;;;;;;;23.87;9.47;;;4.80;99.90;;;;;;5005642;28;20197;-74
2021/03/01 01:47:59;;;;;;;21.07;8.60;;;4.80;99.90;;;;;;5006718;28;20182;-74
2021/03/01 01:50:27;;;;;;;20.60;9.40;;;4.80;99.90;;;;;;5003379;28;20275;-74
2021/03/01 01:52:55;;;;;;;21.73;10.30;;;4.80;99.90;;;;;;5003218;28;20377;-74
2021/03/01 01:55:21;;;;;;;19.60;8.37;;;4.80;99.90;;;;;;5005596;28;20469;-74
2021/03/01 01:57:46;;;;;;;22.23;9.80;;;4.70;99.90;;;;;;5005058;28;20441;-74
2021/03/01 02:00:32;;;;;;;25.77;11.10;;;4.70;99.90;;;;;;5004651;28;20429;-74
2021/03/01 02:03:25;;;;;;;23.23;9.90;;;4.70;99.90;;;;;;5004897;28;20199;-74
2021/03/01 02:05:53;;;;;;;24.97;10.20;;;4.70;99.90;;;;;;5003007;28;20426;-74
2021/03/01 02:08:32;;;;;;;20.13;9.20;;;4.70;99.90;;;;;;5004640;28;20493;-74
2021/03/01 02:11:06;;;;;;;16.10;8.33;;;4.60;99.90;;;;;;5004996;28;20468;-74
2021/03/01 02:13:42;;;;;;;18.27;9.60;;;4.60;99.90;;;;;;5005262;28;20437;-74
2021/03/01 02:16:20;;;;;;;21.57;8.97;;;4.70;99.90;;;;;;5002975;28;20433;-74
2021/03/01 02:18:45;;;;;;;20.60;8.40;;;4.70;99.90;;;;;;5003461;28;20512;-75
2021/03/01 02:21:13;;;;;;;15.50;7.70;;;4.70;99.90;;;;;;5006008;28;21160;-77
2021/03/01 02:23:39;;;;;;;20.37;9.20;;;4.70;99.90;;;;;;5007379;28;20200;-73
2021/03/01 02:26:15;;;;;;;21.47;8.33;;;4.70;99.90;;;;;;5005059;28;20425;-74
2021/03/01 02:28:48;;;;;;;18.33;8.37;;;4.70;99.90;;;;;;5004426;28;20461;-74
2021/03/01 02:31:16;;;;;;;22.27;9.13;;;4.70;99.90;;;;;;5003333;28;20760;-74
2021/03/01 02:33:50;;;;;;;19.70;9.50;;;4.70;99.90;;;;;;5004765;28;20884;-74
2021/03/01 02:36:22;;;;;;;24.93;9.27;;;4.60;99.90;;;;;;5003013;28;20420;-74
2021/03/01 02:38:53;;;;;;;21.40;9.53;;;4.60;99.90;;;;;;5003469;28;20423;-74
2021/03/01 02:41:20;;;;;;;27.33;10.33;;;4.60;99.90;;;;;;5002600;28;20469;-73
2021/03/01 02:43:47;;;;;;;23.00;9.93;;;4.60;99.90;;;;;;5002517;28;20444;-74
2021/03/01 02:46:13;;;;;;;22.40;10.13;;;4.60;99.90;;;;;;5002028;28;20425;-74
2021/03/01 02:48:41;;;;;;;21.90;10.17;;;4.60;99.90;;;;;;5004669;28;20441;-74
2021/03/01 02:51:08;;;;;;;19.23;9.43;;;4.70;99.90;;;;;;5003074;28;20437;-74
2021/03/01 02:53:35;;;;;;;20.37;8.87;;;4.70;99.90;;;;;;5004666;28;20440;-75
2021/03/01 02:56:02;;;;;;;16.63;7.97;;;4.70;99.90;;;;;;5004884;28;20432;-74
2021/03/01 02:58:30;;;;;;;22.53;9.30;;;4.70;99.90;;;;;;5003975;28;20859;-72
2021/03/01 03:00:59;;;;;;;16.70;7.83;;;4.60;99.90;;;;;;5003381;28;20904;-75
2021/03/01 03:03:26;;;;;;;21.07;9.63;;;4.60;99.90;;;;;;5006692;28;20466;-74
2021/03/01 03:05:52;;;;;;;20.87;9.43;;;4.60;99.90;;;;;;5004314;28;20521;-75
2021/03/01 03:08:18;;;;;;;16.17;7.83;;;4.50;99.90;;;;;;5004390;28;20434;-74
2021/03/01 03:10:47;;;;;;;16.63;7.60;;;4.60;99.90;;;;;;5004808;28;20947;-74
2021/03/01 03:13:13;;;;;;;23.43;10.53;;;4.60;99.90;;;;;;5004119;28;20449;-75
2021/03/01 03:15:40;;;;;;;16.73;8.80;;;4.70;99.90;;;;;;5003171;28;20520;-74
2021/03/01 03:18:09;;;;;;;22.07;9.17;;;4.70;99.90;;;;;;5006802;28;20437;-74
2021/03/01 03:20:35;;;;;;;16.27;8.40;;;4.70;99.90;;;;;;5002680;28;20453;-74
2021/03/01 03:23:02;;;;;;;25.20;10.07;;;4.70;99.90;;;;;;5003772;28;20496;-74
2021/03/01 03:25:27;;;;;;;22.90;10.80;;;4.60;99.90;;;;;;5004455;28;20890;-74
2021/03/01 03:27:53;;;;;;;17.93;9.67;;;4.70;99.90;;;;;;5004643;28;20436;-74
2021/03/01 03:30:24;;;;;;;26.70;10.50;;;4.60;99.90;;;;;;5003180;28;20560;-74
2021/03/01 03:32:52;;;;;;;20.57;9.30;;;4.60;99.90;;;;;;5004151;28;20199;-74
2021/03/01 03:35:19;;;;;;;18.60;9.40;;;4.50;99.90;;;;;;5001281;28;20875;-74
2021/03/01 03:38:09;;;;;;;25.97;10.63;;;4.50;99.90;;;;;;5003777;28;20914;-74
2021/03/01 03:40:36;;;;;;;16.70;9.67;;;4.50;99.90;;;;;;4995136;28;20445;-74
2021/03/01 03:43:06;;;;;;;23.77;10.57;;;4.40;99.90;;;;;;5003358;28;20476;-74
2021/03/01 03:45:32;;;;;;;27.07;11.00;;;4.40;99.90;;;;;;5004362;28;20954;-74
2021/03/01 03:48:03;;;;;;;15.83;9.07;;;4.50;99.90;;;;;;5003384;28;20531;-74
2021/03/01 03:50:30;;;;;;;23.17;10.40;;;4.50;99.90;;;;;;5003163;28;20443;-74
2021/03/01 03:53:03;;;;;;;29.63;11.67;;;4.60;99.90;;;;;;5003300;28;20445;-74
2021/03/01 03:55:30;;;;;;;28.37;11.10;;;4.50;99.90;;;;;;5002371;28;20441;-74
2021/03/01 03:58:01;;;;;;;25.30;10.70;;;4.40;99.90;;;;;;5002784;28;20470;-74
2021/03/01 04:00:29;;;;;;;21.77;9.30;;;4.40;99.90;;;;;;5001797;28;20457;-74
2021/03/01 04:02:58;;;;;;;20.13;9.00;;;4.40;99.90;;;;;;5006233;28;20453;-74
2021/03/01 04:05:26;;;;;;;20.93;10.03;;;4.50;99.90;;;;;;5006157;28;20418;-74
2021/03/01 04:07:54;;;;;;;19.00;8.90;;;4.50;99.90;;;;;;5006831;28;20956;-74
2021/03/01 04:10:20;;;;;;;18.23;8.83;;;4.50;99.90;;;;;;5006767;28;20441;-74
2021/03/01 04:12:50;;;;;;;20.47;7.87;;;4.40;99.90;;;;;;5005112;28;20452;-73
2021/03/01 04:15:17;;;;;;;18.57;9.00;;;4.50;99.90;;;;;;5006139;28;20508;-74
2021/03/01 04:17:45;;;;;;;14.70;8.13;;;4.50;99.90;;;;;;5006996;28;20536;-74
2021/03/01 04:20:13;;;;;;;15.43;7.30;;;4.50;99.90;;;;;;5007672;28;20893;-74
2021/03/01 04:22:40;;;;;;;15.63;8.40;;;4.40;99.90;;;;;;5006904;28;20825;-74
2021/03/01 04:25:08;;;;;;;16.37;8.20;;;4.40;99.90;;;;;;5006284;28;20471;-74
2021/03/01 04:27:38;;;;;;;20.20;8.30;;;4.40;99.90;;;;;;5006830;28;20452;-74
2021/03/01 04:30:11;;;;;;;19.20;9.73;;;4.40;99.90;;;;;;5006825;28;20440;-73
2021/03/01 04:32:41;;;;;;;12.07;7.20;;;4.40;99.90;;;;;;5005700;28;20441;-73
2021/03/01 04:35:08;;;;;;;14.30;7.60;;;4.40;99.90;;;;;;5006440;28;20539;-73
2021/03/01 04:37:35;;;;;;;16.00;8.10;;;4.40;99.90;;;;;;5006168;28;20907;-73
2021/03/01 04:40:02;;;;;;;13.20;8.00;;;4.40;99.90;;;;;;5012850;28;20920;-74
2021/03/01 04:42:29;;;;;;;17.97;8.50;;;4.40;99.90;;;;;;5005225;28;20464;-74
2021/03/01 04:44:56;;;;;;;16.63;8.80;;;4.40;99.90;;;;;;5005265;28;20444;-73
2021/03/01 04:47:23;;;;;;;14.37;9.23;;;4.40;99.90;;;;;;5006088;28;20759;-74
2021/03/01 04:49:50;;;;;;;18.53;8.17;;;4.50;99.90;;;;;;5005673;28;20695;-74
2021/03/01 04:52:16;;;;;;;12.27;7.10;;;4.50;99.90;;;;;;5005097;28;20455;-74
2021/03/01 04:54:43;;;;;;;15.23;7.50;;;4.50;99.90;;;;;;5006791;28;20770;-73
2021/03/01 04:57:12;;;;;;;12.67;7.10;;;4.50;99.90;;;;;;5006587;28;20430;-74
2021/03/01 04:59:38;;;;;;;19.33;7.90;;;4.50;99.90;;;;;;5006362;28;20428;-74
2021/03/01 05:02:04;;;;;;;18.20;9.10;;;4.50;99.90;;;;;;5003840;28;20461;-73
2021/03/01 05:04:30;;;;;;;20.27;7.90;;;4.50;99.90;;;;;;5004569;28;20442;-73
2021/03/01 05:06:59;;;;;;;18.20;8.80;;;4.40;99.90;;;;;;5004569;28;20460;-73
2021/03/01 05:09:25;;;;;;;17.10;8.20;;;4.40;99.90;;;;;;5006180;28;20440;-73
2021/03/01 05:11:51;;;;;;;20.07;9.47;;;4.30;99.90;;;;;;5005308;28;20437;-74
2021/03/01 05:14:16;;;;;;;16.23;8.37;;;4.30;99.90;;;;;;5004576;28;20277;-74
2021/03/01 05:16:42;;;;;;;18.27;9.93;;;4.30;99.90;;;;;;5005685;28;20194;-74
2021/03/01 05:19:08;;;;;;;20.87;10.00;;;4.30;99.90;;;;;;5004929;28;20497;-74
2021/03/01 05:21:34;;;;;;;22.90;9.60;;;4.30;99.90;;;;;;5006140;28;20548;-73
2021/03/01 05:23:59;;;;;;;17.20;9.60;;;4.30;99.90;;;;;;5005559;28;20187;-74
2021/03/01 05:26:27;;;;;;;22.90;10.10;;;4.30;99.90;;;;;;5005861;28;20190;-74
2021/03/01 05:28:53;;;;;;;23.17;10.20;;;4.30;99.90;;;;;;5004982;28;20433;-73
2021/03/01 05:31:19;;;;;;;26.83;10.83;;;4.30;99.90;;;;;;5004429;28;20436;-73
2021/03/01 05:33:48;;;;;;;21.33;9.13;;;4.30;99.90;;;;;;5004778;28;20216;-74
2021/03/01 05:36:13;;;;;;;23.30;9.60;;;4.30;99.90;;;;;;5004324;28;20217;-74
2021/03/01 05:38:39;;;;;;;17.30;9.60;;;4.30;99.90;;;;;;5004051;28;20438;-73
2021/03/01 05:41:06;;;;;;;29.20;11.13;;;4.30;99.90;;;;;;5003751;28;20190;-73
2021/03/01 05:43:32;;;;;;;32.27;11.87;;;4.30;99.90;;;;;;5005213;28;20724;-73
2021/03/01 05:45:59;;;;;;;24.80;11.03;;;4.30;99.90;;;;;;5006541;28;20431;-74
2021/03/01 05:48:27;;;;;;;23.60;12.17;;;4.30;99.90;;;;;;5004202;28;20409;-73
2021/03/01 05:50:59;;;;;;;29.10;11.30;;;4.30;99.90;;;;;;5004383;28;20458;-73
2021/03/01 05:53:29;;;;;;;21.60;10.97;;;4.30;99.90;;;;;;5003719;28;20428;-73
2021/03/01 05:55:58;;;;;;;21.87;11.67;;;4.30;99.90;;;;;;5005503;28;20480;-74
2021/03/01 05:58:25;;;;;;;23.83;9.73;;;4.30;99.90;;;;;;5005458;28;20520;-73
2021/03/01 06:00:53;;;;;;;24.40;9.73;;;4.30;99.90;;;;;;5019992;28;20829;-74
2021/03/01 06:03:19;;;;;;;28.43;12.67;;;4.30;99.90;;;;;;5002636;28;20461;-73
2021/03/01 06:05:45;;;;;;;28.30;9.80;;;4.40;99.90;;;;;;5008049;28;20426;-74
2021/03/01 06:08:10;;;;;;;25.03;11.20;;;4.40;99.90;;;;;;5004353;28;20495;-74
2021/03/01 06:10:37;;;;;;;16.20;8.93;;;4.50;99.90;;;;;;5003445;28;20181;-73
2021/03/01 06:13:02;;;;;;;20.03;11.30;;;4.40;99.90;;;;;;5003402;28;20179;-74
2021/03/01 06:15:29;;;;;;;26.33;10.57;;;4.40;99.90;;;;;;5004931;28;20750;-74
2021/03/01 06:18:04;;;;;;;25.30;11.10;;;4.40;99.90;;;;;;5004623;28;20436;-74
2021/03/01 06:20:30;;;;;;;20.33;9.07;;;4.30;99.90;;;;;;5009890;28;20598;-74
2021/03/01 06:22:56;;;;;;;24.07;11.10;;;4.30;99.90;;;;;;5008437;28;20457;-75
2021/03/01 06:25:21;;;;;;;22.33;9.80;;;4.30;99.90;;;;;;5008522;28;20178;-74
2021/03/01 06:27:58;;;;;;;24.77;11.77;;;4.30;99.90;;;;;;5005310;28;20182;-74
2021/03/01 06:30:32;;;;;;;22.83;11.20;;;4.40;99.90;;;;;;5003617;28;20181;-75
2021/03/01 06:33:20;;;;;;;28.80;12.90;;;4.40;99.90;;;;;;4997589;28;20918;-75
2021/03/01 06:35:51;;;;;;;22.27;9.80;;;4.40;99.90;;;;;;5020949;28;20439;-75
2021/03/01 06:38:22;;;;;;;22.87;10.83;;;4.40;99.90;;;;;;5002859;28;20422;-75
2021/03/01 06:41:09;;;;;;;27.40;11.97;;;4.30;99.90;;;;;;5004539;28;20437;-75
2021/03/01 06:43:35;;;;;;;24.00;10.33;;;4.40;99.90;;;;;;5003891;28;20459;-73
2021/03/01 06:46:10;;;;;;;26.30;9.97;;;4.40;99.90;;;;;;5003203;28;20769;-75
2021/03/01 06:48:37;;;;;;;23.67;11.77;;;4.40;99.90;;;;;;5003876;28;20872;-75
2021/03/01 06:51:04;;;;;;;24.00;10.60;;;4.40;99.90;;;;;;5005143;28;20448;-74
2021/03/01 06:53:29;;;;;;;25.47;10.93;;;4.30;99.90;;;;;;5003835;28;20439;-74
2021/03/01 06:55:58;;;;;;;24.17;11.10;;;4.40;99.90;;;;;;5002471;28;22241;-74
2021/03/01 06:58:27;;;;;;;21.17;10.60;;;4.40;99.90;;;;;;5003992;28;20209;-75
2021/03/01 07:01:00;;;;;;;20.87;10.20;;;4.40;99.90;;;;;;5004002;28;20906;-75
2021/03/01 07:03:26;;;;;;;27.33;12.77;;;4.40;99.90;;;;;;5002965;28;20469;-75
2021/03/01 07:05:53;;;;;;;29.57;10.90;;;4.50;99.90;;;;;;5001748;28;20515;-74
2021/03/01 07:08:48;;;;;;;26.63;12.13;;;4.50;99.90;;;;;;5002880;28;20809;-75
2021/03/01 07:11:26;;;;;;;26.70;10.37;;;4.60;99.90;;;;;;5003322;28;20425;-75
2021/03/01 07:14:13;;;;;;;23.80;10.50;;;4.60;99.90;;;;;;5003747;28;20530;-75
2021/03/01 07:16:44;;;;;;;28.23;12.13;;;4.50;99.90;;;;;;5004705;28;20437;-75
2021/03/01 07:19:18;;;;;;;25.33;12.03;;;4.60;99.90;;;;;;5017931;28;20525;-75
2021/03/01 07:21:46;;;;;;;22.03;10.83;;;4.60;99.90;;;;;;5004633;28;20487;-75
2021/03/01 07:24:16;;;;;;;23.83;10.53;;;4.60;99.90;;;;;;5002984;28;20805;-75
2021/03/01 07:26:43;;;;;;;27.80;11.83;;;4.60;99.90;;;;;;5004040;28;20480;-75
2021/03/01 07:29:11;;;;;;;23.87;10.77;;;4.70;99.90;;;;;;5005517;28;20751;-75
2021/03/01 07:31:40;;;;;;;30.27;11.80;;;4.70;99.90;;;;;;5003055;28;20561;-75
2021/03/01 07:34:06;;;;;;;21.37;10.03;;;4.70;99.90;;;;;;5001083;28;20438;-75
2021/03/01 07:36:33;;;;;;;27.17;11.67;;;4.70;99.90;;;;;;5000397;28;20463;-75
2021/03/01 07:39:01;;;;;;;27.50;12.20;;;4.70;99.90;;;;;;5001643;28;20437;-74
2021/03/01 07:41:30;;;;;;;26.23;11.37;;;4.70;99.90;;;;;;5016855;28;20430;-74
2021/03/01 07:43:57;;;;;;;32.20;12.77;;;4.80;99.90;;;;;;5019452;28;20434;-74
2021/03/01 07:46:29;;;;;;;21.57;11.17;;;4.80;99.90;;;;;;5006115;28;20434;-74
2021/03/01 07:48:55;;;;;;;22.80;11.27;;;4.80;99.90;;;;;;5003851;28;20429;-74
2021/03/01 07:51:40;;;;;;;33.77;12.00;;;4.80;99.90;;;;;;5004999;28;21436;-74
2021/03/01 07:54:06;;;;;;;22.70;11.30;;;4.90;99.90;;;;;;5003521;28;20471;-75
2021/03/01 07:56:31;;;;;;;26.73;11.20;;;4.90;99.90;;;;;;5002569;28;20457;-74
2021/03/01 07:58:59;;;;;;;24.10;10.80;;;4.80;99.90;;;;;;5003145;28;20496;-74
2021/03/01 08:01:25;;;;;;;28.43;10.17;;;4.80;99.90;;;;;;5017033;28;20186;-74
2021/03/01 08:03:51;;;;;;;22.70;10.80;;;4.90;99.90;;;;;;5003403;28;20441;-74
2021/03/01 08:06:16;;;;;;;26.00;11.47;;;4.80;99.90;;;;;;5001602;28;20429;-75
2021/03/01 08:08:48;;;;;;;25.77;11.67;;;4.90;99.90;;;;;;5006283;28;20505;-74
2021/03/01 08:11:14;;;;;;;23.33;10.90;;;4.90;99.90;;;;;;5004115;28;20213;-75
2021/03/01 08:13:40;;;;;;;26.30;12.33;;;5.00;99.90;;;;;;5003564;28;20437;-75
2021/03/01 08:16:19;;;;;;;25.40;12.47;;;5.00;99.90;;;;;;5004243;28;20436;-74
2021/03/01 08:18:56;;;;;;;28.63;11.60;;;5.10;99.90;;;;;;5003039;28;20182;-74
2021/03/01 08:21:22;;;;;;;24.20;12.40;;;5.20;99.90;;;;;;5004600;28;20433;-74
2021/03/01 08:23:48;;;;;;;26.90;13.07;;;5.10;99.90;;;;;;5002678;28;20841;-75
2021/03/01 08:26:33;;;;;;;25.57;13.03;;;5.10;99.90;;;;;;5002853;28;20421;-74
2021/03/01 08:29:18;;;;;;;19.67;10.17;;;5.10;99.90;;;;;;5003842;28;20171;-74
2021/03/01 08:31:43;;;;;;;31.83;14.00;;;5.10;99.90;;;;;;5002378;28;20485;-75
2021/03/01 08:34:29;;;;;;;25.73;11.80;;;5.10;99.90;;;;;;5002004;28;20514;-74
2021/03/01 08:36:56;;;;;;;25.33;10.90;;;5.20;99.90;;;;;;5000208;28;20700;-73
2021/03/01 08:39:57;;;;;;;23.43;10.90;;;5.30;99.90;;;;;;5002119;28;20432;-76
2021/03/01 08:42:46;;;;;;;27.03;12.87;;;5.30;99.90;;;;;;4990563;28;20465;-75
2021/03/01 08:45:18;;;;;;;26.50;13.47;;;5.40;99.90;;;;;;5002124;28;20549;-73
2021/03/01 08:47:51;;;;;;;27.30;12.73;;;5.40;99.90;;;;;;5000976;28;20534;-76
2021/03/01 08:50:21;;;;;;;29.07;12.80;;;5.50;99.90;;;;;;5005343;28;20430;-74
2021/03/01 08:52:48;;;;;;;22.20;12.40;;;5.60;99.90;;;;;;5006492;28;20457;-74
2021/03/01 08:55:16;;;;;;;23.80;12.63;;;5.70;99.90;;;;;;5007193;28;20467;-75
2021/03/01 08:57:58;;;;;;;28.83;14.60;;;5.80;99.90;;;;;;5009674;28;20445;-76
2021/03/01 09:00:25;;;;;;;27.03;12.40;;;5.90;99.90;;;;;;5004861;28;20893;-75
2021/03/01 09:03:18;;;;;;;25.60;12.67;;;6.00;99.90;;;;;;5007832;28;20450;-75
2021/03/01 09:05:46;;;;;;;22.77;12.10;;;6.00;99.90;;;;;;5004966;28;20426;-75
2021/03/01 09:08:13;;;;;;;23.87;13.20;;;5.90;99.90;;;;;;5004748;28;20521;-75
2021/03/01 09:10:44;;;;;;;29.83;13.40;;;6.00;99.90;;;;;;5006577;28;20436;-75
2021/03/01 09:13:17;;;;;;;30.10;13.60;;;5.90;99.90;;;;;;5010026;28;20439;-75
2021/03/01 09:15:44;;;;;;;30.83;12.40;;;5.90;99.90;;;;;;5004266;28;20880;-78
2021/03/01 09:18:10;;;;;;;30.00;13.10;;;5.90;99.90;;;;;;5002671;28;20438;-75
2021/03/01 09:20:52;;;;;;;27.00;13.17;;;5.90;99.90;;;;;;5005591;28;20442;-77
2021/03/01 09:23:34;;;;;;;27.63;14.63;;;6.10;99.90;;;;;;5005604;28;20543;-76
2021/03/01 09:26:01;;;;;;;19.70;11.93;;;6.10;99.90;;;;;;5009246;28;20447;-78
2021/03/01 09:28:35;;;;;;;23.57;12.13;;;6.30;99.90;;;;;;5006974;28;20496;-76
2021/03/01 09:31:09;;;;;;;32.77;15.10;;;6.40;99.90;;;;;;5020243;28;20426;-79
2021/03/01 09:33:36;;;;;;;26.53;12.80;;;6.50;99.90;;;;;;5007912;28;20430;-76
2021/03/01 09:36:02;;;;;;;27.00;13.30;;;6.60;99.90;;;;;;5007264;28;20441;-78
2021/03/01 09:38:28;;;;;;;28.40;12.60;;;6.40;99.90;;;;;;5010170;28;20528;-79
2021/03/01 09:41:01;;;;;;;27.43;13.90;;;6.30;99.90;;;;;;5010797;28;20433;-77
2021/03/01 09:43:28;;;;;;;32.43;13.80;;;6.30;99.90;;;;;;5007374;28;20452;-75
2021/03/01 09:45:55;;;;;;;28.53;13.87;;;6.40;99.90;;;;;;5005686;28;20894;-77
2021/03/01 09:48:20;;;;;;;27.27;12.03;;;6.50;99.90;;;;;;5005037;28;20736;-77
2021/03/01 09:50:47;;;;;;;25.20;13.00;;;6.70;99.90;;;;;;5005344;28;20564;-76
2021/03/01 09:53:16;;;;;;;27.43;14.73;;;6.80;99.90;;;;;;5005206;28;20211;-76
2021/03/01 09:55:43;;;;;;;36.30;15.00;;;6.90;99.90;;;;;;5008180;28;20436;-75
2021/03/01 09:58:44;;;;;;;26.53;13.73;;;6.90;99.90;;;;;;5005946;28;20448;-75
2021/03/01 10:01:18;;;;;;;25.90;12.30;;;7.00;99.90;;;;;;4981430;28;20454;-77
2021/03/01 10:03:46;;;;;;;23.30;13.70;;;6.80;99.90;;;;;;5004839;28;20456;-77
2021/03/01 10:06:14;;;;;;;28.10;14.40;;;6.80;99.90;;;;;;5003500;28;20429;-75
2021/03/01 10:08:41;;;;;;;28.67;14.10;;;6.70;99.90;;;;;;5019892;28;20430;-75
2021/03/01 10:11:25;;;;;;;29.77;15.10;;;6.60;99.90;;;;;;5004769;28;20489;-75
2021/03/01 10:14:00;;;;;;;29.90;14.30;;;6.60;99.90;;;;;;5004035;28;20434;-75
2021/03/01 10:16:34;;;;;;;27.73;14.70;;;6.60;99.90;;;;;;5005102;28;20519;-76
2021/03/01 10:19:22;;;;;;;28.53;15.00;;;6.70;99.90;;;;;;5004603;28;20429;-75
2021/03/01 10:21:50;;;;;;;30.40;17.60;;;6.70;99.90;;;;;;5004015;28;20438;-75
2021/03/01 10:24:18;;;;;;;31.90;16.03;;;6.70;99.90;;;;;;5004046;28;20458;-74
2021/03/01 10:27:00;;;;;;;35.03;17.13;;;6.80;99.90;;;;;;5006207;28;20886;-75
2021/03/01 10:29:36;;;;;;;31.97;18.60;;;6.80;99.90;;;;;;5004292;28;20478;-75
2021/03/01 10:32:03;;;;;;;36.53;18.10;;;6.90;99.90;;;;;;5003985;28;20437;-75
2021/03/01 10:34:35;;;;;;;34.80;16.40;;;7.10;99.90;;;;;;5021350;28;20450;-75
2021/03/01 10:37:02;;;;;;;32.70;18.17;;;7.40;99.90;;;;;;5004836;28;20915;-75
2021/03/01 10:39:32;;;;;;;37.70;15.63;;;7.70;99.90;;;;;;5004992;28;20529;-75
2021/03/01 10:42:03;;;;;;;36.30;17.37;;;7.90;99.90;;;;;;5002898;28;20457;-74
2021/03/01 10:44:31;;;;;;;29.13;16.03;;;8.10;99.90;;;;;;5019322;28;20427;-75
2021/03/01 10:47:10;;;;;;;31.87;17.40;;;8.20;99.90;;;;;;5008635;28;20419;-75
2021/03/01 10:49:36;;;;;;;28.13;16.33;;;8.40;99.90;;;;;;5018458;28;20961;-74
2021/03/01 10:52:02;;;;;;;25.47;14.97;;;8.40;99.90;;;;;;5003743;28;20446;-74
2021/03/01 10:54:27;;;;;;;31.07;16.20;;;8.50;99.90;;;;;;5003444;28;20924;-74
2021/03/01 10:56:54;;;;;;;27.40;14.53;;;8.60;99.90;;;;;;5004358;28;20182;-74
2021/03/01 10:59:20;;;;;;;27.90;14.20;;;8.80;99.90;;;;;;5004728;28;20187;-75
2021/03/01 11:01:47;;;;;;;28.63;15.80;;;9.00;99.90;;;;;;5003243;28;20429;-75
2021/03/01 11:04:15;;;;;;;27.37;13.50;;;9.00;99.90;;;;;;5003911;28;20170;-75
2021/03/01 11:06:41;;;;;;;28.37;12.63;;;9.10;99.90;;;;;;5003779;28;20521;-74
2021/03/01 11:09:10;;;;;;;29.63;15.80;;;9.00;99.90;;;;;;5007936;28;20601;-74
2021/03/01 11:11:36;;;;;;;27.10;13.50;;;9.00;99.90;;;;;;5001757;28;20770;-74
2021/03/01 11:14:03;;;;;;;27.40;14.40;;;9.10;99.90;;;;;;5003087;28;20431;-75
2021/03/01 11:16:29;;;;;;;26.40;14.70;;;9.10;99.90;;;;;;5001945;28;20571;-74
2021/03/01 11:18:54;;;;;;;22.43;12.37;;;9.20;99.90;;;;;;5003619;28;20882;-75
2021/03/01 11:21:20;;;;;;;21.83;12.87;;;9.30;99.90;;;;;;5002733;28;20232;-74
2021/03/01 11:23:46;;;;;;;25.57;12.80;;;9.30;99.90;;;;;;5003020;28;20198;-74
2021/03/01 11:26:14;;;;;;;25.43;14.27;;;9.30;99.90;;;;;;5003784;28;20741;-75
2021/03/01 11:28:40;;;;;;;28.00;13.27;;;9.40;99.90;;;;;;5003666;28;20945;-74
2021/03/01 11:31:05;;;;;;;22.37;13.10;;;9.50;99.90;;;;;;5003350;28;20426;-75
2021/03/01 11:33:31;;;;;;;26.93;13.63;;;9.60;99.90;;;;;;5005604;28;20437;-74
2021/03/01 11:35:57;;;;;;;24.37;14.20;;;9.90;99.90;;;;;;5004806;28;20182;-75
2021/03/01 11:38:24;;;;;;;24.80;13.03;;;9.90;99.90;;;;;;5003459;28;20211;-75
2021/03/01 11:40:51;;;;;;;22.13;12.73;;;10.20;99.90;;;;;;5000668;28;20433;-75
2021/03/01 11:43:17;;;;;;;25.30;13.43;;;10.30;99.90;;;;;;5006139;28;20563;-75
2021/03/01 11:45:43;;;;;;;24.97;13.17;;;10.50;99.90;;;;;;5009592;28;20576;-75
2021/03/01 11:48:14;;;;;;;22.60;13.43;;;10.60;99.90;;;;;;5004253;28;20413;-75
2021/03/01 11:50:41;;;;;;;26.43;14.73;;;10.80;99.90;;;;;;5006100;28;20508;-75
2021/03/01 11:53:07;;;;;;;21.80;13.33;;;11.00;99.90;;;;;;5006756;28;20527;-75
2021/03/01 11:55:33;;;;;;;19.83;11.33;;;11.00;99.90;;;;;;5009220;28;20516;-75
2021/03/01 11:57:58;;;;;;;22.87;12.27;;;11.00;99.90;;;;;;5020424;28;20197;-75
2021/03/01 12:00:24;;;;;;;26.23;12.63;;;11.20;99.90;;;;;;5000811;28;20221;-75
2021/03/01 12:02:50;;;;;;;20.60;12.40;;;11.30;99.90;;;;;;5001863;28;20274;-74
2021/03/01 12:05:16;;;;;;;22.07;13.93;;;11.40;99.90;;;;;;5006963;28;20436;-74
2021/03/01 12:07:41;;;;;;;22.20;12.70;;;11.40;99.90;;;;;;5002634;28;20232;-74
2021/03/01 12:10:08;;;;;;;21.50;13.60;;;11.50;99.90;;;;;;5005505;28;20174;-74
2021/03/01 12:12:34;;;;;;;21.70;12.37;;;11.50;99.90;;;;;;5001742;28;20270;-73
2021/03/01 12:14:59;;;;;;;23.37;13.63;;;11.50;99.90;;;;;;5004765;28;20803;-74
2021/03/01 12:17:25;;;;;;;27.40;14.57;;;11.60;99.90;;;;;;5002844;28;20653;-73
2021/03/01 12:19:51;;;;;;;24.80;14.03;;;11.70;99.90;;;;;;5005505;28;20201;-73
2021/03/01 12:22:17;;;;;;;28.80;14.73;;;11.70;99.90;;;;;;5005422;28;20225;-73
2021/03/01 12:24:42;;;;;;;30.57;14.60;;;11.60;99.90;;;;;;5006757;28;20793;-73
2021/03/01 12:27:08;;;;;;;24.47;14.27;;;11.50;99.90;;;;;;5006300;28;20187;-73
2021/03/01 12:29:34;;;;;;;27.10;14.60;;;11.50;99.90;;;;;;5006565;28;20188;-74
2021/03/01 12:31:59;;;;;;;28.30;15.60;;;11.60;99.90;;;;;;5007375;28;20194;-73
2021/03/01 12:34:25;;;;;;;28.60;13.90;;;11.70;99.90;;;;;;5006494;28;20666;-73
2021/03/01 12:36:51;;;;;;;30.77;15.80;;;11.70;99.90;;;;;;5008475;28;20357;-75
2021/03/01 12:39:16;;;;;;;24.37;14.30;;;11.60;99.90;;;;;;5008906;28;20627;-75
2021/03/01 12:41:42;;;;;;;28.70;16.23;;;11.70;99.90;;;;;;5010853;28;20737;-74
2021/03/01 12:44:08;;;;;;;25.57;14.47;;;11.90;99.90;;;;;;5008677;28;20171;-74
2021/03/01 12:46:34;;;;;;;28.20;17.30;;;12.00;99.90;;;;;;5006804;28;20682;-75
2021/03/01 12:49:00;;;;;;;28.53;15.30;;;12.00;99.90;;;;;;5006927;28;20440;-74